Time;durP1;ratioP1;P1;durP2;ratioP2;P2;SDS_P1;SDS_P2;PMS_P1;PMS_P2;Temp;Humidity;BMP_temperature;BMP_pressure;BME280_temperature;BME280_humidity;BME280_pressure;Samples;Min_cycle;Max_cycle;Signal;HPM_P1;HPM_P2
2021/09/14 00:01:32;;;;;;;3.15;2.20;;;16.30;89.50;;;;;;5071917;28;20021;-90
2021/09/14 00:03:58;;;;;;;2.95;2.50;;;16.30;89.50;;;;;;5069904;28;20028;-89
2021/09/14 00:06:24;;;;;;;1.88;1.50;;;16.20;89.50;;;;;;5060317;28;20049;-89
2021/09/14 00:08:49;;;;;;;2.42;1.85;;;16.10;89.10;;;;;;5041349;28;20094;-87
2021/09/14 00:11:15;;;;;;;2.97;1.88;;;16.00;89.00;;;;;;5060849;28;20026;-89
2021/09/14 00:13:41;;;;;;;4.55;2.13;;;15.90;88.60;;;;;;5060878;28;20025;-89
2021/09/14 00:16:07;;;;;;;4.22;1.95;;;15.80;88.30;;;;;;5059872;28;20021;-89
2021/09/14 00:18:32;;;;;;;3.28;1.75;;;15.80;87.60;;;;;;5049571;28;20049;-91
2021/09/14 00:20:58;;;;;;;3.92;1.55;;;15.70;87.40;;;;;;5073115;28;20139;-89
2021/09/14 00:23:24;;;;;;;4.63;1.80;;;15.60;87.20;;;;;;5057934;28;20025;-90
2021/09/14 00:25:50;;;;;;;3.30;1.80;;;15.60;87.30;;;;;;5073433;28;20040;-90
2021/09/14 00:28:16;;;;;;;3.00;1.65;;;15.50;87.10;;;;;;5068060;28;20009;-92
2021/09/14 00:30:42;;;;;;;4.18;1.92;;;15.40;87.10;;;;;;5064508;28;20448;-90
2021/09/14 00:33:07;;;;;;;4.38;1.80;;;15.30;87.00;;;;;;5059339;28;20029;-94
2021/09/14 00:35:33;;;;;;;2.67;1.63;;;15.30;87.10;;;;;;5065195;28;20057;-92
2021/09/14 00:37:59;;;;;;;2.63;1.30;;;15.30;86.60;;;;;;5058541;28;20478;-93
2021/09/14 00:40:25;;;;;;;3.30;1.40;;;15.30;85.60;;;;;;5075710;28;20065;-94
2021/09/14 00:42:51;;;;;;;1.48;1.38;;;15.30;85.30;;;;;;5057701;28;20049;-93
2021/09/14 00:45:17;;;;;;;1.20;1.05;;;15.40;84.20;;;;;;5055781;28;20128;-93
2021/09/14 00:47:44;;;;;;;3.92;1.30;;;15.40;83.40;;;;;;5062148;28;20088;-93
2021/09/14 00:50:10;;;;;;;2.95;1.65;;;15.30;83.30;;;;;;5080912;28;20077;-92
2021/09/14 00:52:36;;;;;;;1.67;1.35;;;15.20;83.40;;;;;;5074686;28;20047;-93
2021/09/14 00:55:04;;;;;;;3.05;1.65;;;15.20;83.50;;;;;;5062730;28;20095;-93
2021/09/14 00:57:30;;;;;;;1.80;1.30;;;15.10;83.70;;;;;;5047130;28;20032;-92
2021/09/14 00:59:56;;;;;;;2.60;1.48;;;15.00;83.80;;;;;;5059747;28;20028;-92
2021/09/14 01:02:22;;;;;;;4.20;1.65;;;15.00;84.20;;;;;;5058523;28;20068;-91
2021/09/14 01:04:48;;;;;;;2.40;1.33;;;15.00;84.70;;;;;;5059488;28;20029;-92
2021/09/14 01:07:14;;;;;;;6.68;1.40;;;14.90;84.70;;;;;;5059086;28;20021;-93
2021/09/14 01:09:41;;;;;;;2.95;1.27;;;15.00;84.10;;;;;;5062135;28;20025;-92
2021/09/14 01:12:10;;;;;;;2.70;1.38;;;15.00;81.60;;;;;;5055160;28;20022;-90
2021/09/14 01:14:36;;;;;;;2.97;1.08;;;14.90;79.30;;;;;;5065054;28;20052;-91
2021/09/14 01:17:04;;;;;;;5.78;1.48;;;14.80;79.10;;;;;;5080224;28;20528;-91
2021/09/14 01:19:29;;;;;;;2.20;1.38;;;14.70;79.00;;;;;;5058611;28;20116;-92
2021/09/14 01:21:55;;;;;;;3.72;1.67;;;14.70;79.20;;;;;;5061904;28;20473;-92
2021/09/14 01:24:21;;;;;;;3.20;1.88;;;14.70;78.90;;;;;;5051331;28;20031;-92
2021/09/14 01:26:47;;;;;;;3.42;1.33;;;14.60;78.90;;;;;;5061710;28;20017;-93
2021/09/14 01:31:58;;;;;;;5.90;1.40;;;14.50;78.90;;;;;;5071954;28;20029;-92
2021/09/14 01:34:24;;;;;;;1.60;1.50;;;14.40;80.40;;;;;;5058588;28;20048;-92
2021/09/14 01:36:50;;;;;;;2.80;1.90;;;14.30;81.20;;;;;;5076771;28;20016;-91
2021/09/14 01:39:16;;;;;;;2.25;1.35;;;14.10;82.00;;;;;;5068965;28;20033;-91
2021/09/14 01:41:42;;;;;;;4.20;1.30;;;14.10;82.20;;;;;;5058553;28;20071;-90
2021/09/14 01:44:07;;;;;;;5.32;1.52;;;13.90;82.10;;;;;;5062618;28;20054;-92
2021/09/14 01:46:34;;;;;;;4.43;1.73;;;13.80;81.90;;;;;;5062806;28;20478;-90
2021/09/14 01:49:00;;;;;;;4.28;1.58;;;13.70;82.10;;;;;;5066756;28;20454;-92
2021/09/14 01:51:25;;;;;;;2.20;1.55;;;13.70;82.30;;;;;;5038256;28;20021;-92
2021/09/14 01:53:54;;;;;;;2.97;1.50;;;13.60;82.50;;;;;;5038174;28;20052;-91
2021/09/14 01:56:19;;;;;;;2.03;1.33;;;13.50;82.40;;;;;;5053626;28;20070;-90
2021/09/14 01:58:45;;;;;;;2.92;1.70;;;13.50;82.70;;;;;;5066356;28;20036;-89
2021/09/14 02:01:22;;;;;;;2.83;1.55;;;13.40;82.40;;;;;;5068960;28;20043;-90
2021/09/14 02:09:09;;;;;;;3.00;2.10;;;13.10;81.30;;;;;;5044411;28;20025;-91
2021/09/14 02:34:10;;;;;;;2.38;1.40;;;12.80;79.50;;;;;;5076579;28;20028;-91
2021/09/14 03:00:28;;;;;;;1.25;1.08;;;12.80;74.80;;;;;;5077372;28;20078;-87
2021/09/14 03:02:54;;;;;;;4.93;1.50;;;12.80;74.50;;;;;;5074116;28;20051;-91
2021/09/14 03:05:20;;;;;;;3.88;1.25;;;12.80;74.10;;;;;;5062579;28;20021;-90
2021/09/14 03:07:45;;;;;;;2.38;0.90;;;12.80;74.10;;;;;;5079410;28;20105;-90
2021/09/14 03:10:11;;;;;;;4.13;1.33;;;12.80;74.30;;;;;;5062707;28;20056;-88
2021/09/14 03:12:37;;;;;;;1.85;1.30;;;12.80;74.80;;;;;;5075887;28;20025;-88
2021/09/14 03:15:03;;;;;;;1.42;1.10;;;12.70;74.10;;;;;;5071054;28;20111;-91
2021/09/14 03:17:29;;;;;;;1.63;1.30;;;12.70;74.10;;;;;;5086189;28;20024;-88
2021/09/14 03:19:55;;;;;;;4.18;1.52;;;12.70;74.20;;;;;;5095685;28;20040;-88
2021/09/14 03:22:20;;;;;;;3.08;1.50;;;12.60;74.40;;;;;;5086260;28;20021;-89
2021/09/14 03:24:46;;;;;;;3.50;1.45;;;12.60;74.70;;;;;;5079449;28;20020;-88
2021/09/14 03:27:12;;;;;;;2.75;1.20;;;12.60;74.60;;;;;;5078369;28;20058;-90
2021/09/14 03:29:38;;;;;;;3.30;1.88;;;12.60;74.70;;;;;;5078030;28;20070;-89
2021/09/14 03:32:04;;;;;;;2.67;0.90;;;12.60;74.90;;;;;;5080507;28;20583;-89
2021/09/14 03:34:30;;;;;;;5.55;1.52;;;12.60;75.30;;;;;;5077903;28;20032;-89
2021/09/14 03:36:56;;;;;;;3.97;1.38;;;12.60;75.10;;;;;;5077576;28;20401;-89
2021/09/14 03:39:21;;;;;;;5.45;2.15;;;12.50;74.90;;;;;;5077045;28;20040;-89
2021/09/14 03:41:47;;;;;;;5.05;1.60;;;12.50;75.50;;;;;;5078272;28;20013;-88
2021/09/14 03:44:13;;;;;;;3.47;1.55;;;12.50;75.60;;;;;;5077408;28;20054;-90
2021/09/14 03:46:39;;;;;;;3.40;1.38;;;12.50;75.40;;;;;;5079524;28;20016;-89
2021/09/14 03:49:04;;;;;;;3.63;1.70;;;12.50;75.00;;;;;;5081312;28;20059;-88
2021/09/14 03:51:30;;;;;;;3.92;1.38;;;12.50;75.40;;;;;;5081308;28;20017;-88
2021/09/14 03:53:56;;;;;;;2.22;1.30;;;12.50;75.40;;;;;;5079793;28;20016;-88
2021/09/14 03:56:22;;;;;;;4.05;1.33;;;12.50;75.00;;;;;;5062086;28;20024;-91
2021/09/14 03:58:48;;;;;;;3.10;1.23;;;12.60;74.90;;;;;;5079403;28;20134;-90
2021/09/14 04:01:13;;;;;;;2.97;1.67;;;12.60;74.90;;;;;;5077936;28;20025;-88
2021/09/14 04:03:45;;;;;;;4.30;1.40;;;12.60;75.80;;;;;;5076914;28;20032;-91
2021/09/14 04:06:35;;;;;;;4.05;1.55;;;12.60;74.90;;;;;;5077517;28;20367;-88
2021/09/14 04:09:02;;;;;;;4.63;1.40;;;12.60;75.20;;;;;;5059864;28;20051;-90
2021/09/14 04:11:28;;;;;;;3.47;1.55;;;12.60;75.20;;;;;;5077474;28;20027;-89
2021/09/14 04:13:54;;;;;;;4.18;1.38;;;12.60;75.30;;;;;;5074822;28;20051;-89
2021/09/14 04:16:21;;;;;;;3.95;1.83;;;12.60;75.40;;;;;;5063423;28;20080;-90
2021/09/14 04:18:47;;;;;;;2.45;1.17;;;12.60;75.40;;;;;;5046537;28;20137;-92
2021/09/14 04:21:13;;;;;;;2.88;1.15;;;12.70;75.30;;;;;;5053995;28;20030;-89
2021/09/14 04:23:39;;;;;;;2.92;1.48;;;12.70;75.00;;;;;;5030407;28;20564;-91
2021/09/14 04:26:05;;;;;;;1.88;1.27;;;12.70;74.80;;;;;;5049923;28;20029;-91
2021/09/14 04:28:31;;;;;;;3.80;1.52;;;12.80;75.10;;;;;;5061949;28;20021;-90
2021/09/14 04:30:58;;;;;;;3.35;1.60;;;12.70;75.10;;;;;;5056296;28;20047;-90
2021/09/14 04:33:24;;;;;;;5.97;1.40;;;12.80;74.90;;;;;;5055764;28;20036;-91
2021/09/14 04:35:49;;;;;;;2.65;1.13;;;12.70;75.00;;;;;;5057434;28;20024;-92
2021/09/14 04:38:15;;;;;;;3.40;1.75;;;12.80;75.30;;;;;;5040297;28;20466;-90
2021/09/14 04:40:41;;;;;;;2.63;1.35;;;12.90;75.30;;;;;;5057994;28;20501;-87
2021/09/14 04:43:07;;;;;;;2.78;1.45;;;13.00;75.00;;;;;;5039287;28;20021;-90
2021/09/14 04:45:33;;;;;;;3.17;1.38;;;13.10;74.70;;;;;;5052566;28;20017;-92
2021/09/14 04:47:59;;;;;;;3.65;1.40;;;13.20;74.60;;;;;;5058326;28;20032;-92
2021/09/14 04:50:24;;;;;;;2.65;1.45;;;13.20;74.50;;;;;;5043683;28;20029;-92
2021/09/14 04:52:50;;;;;;;5.72;1.67;;;13.20;73.80;;;;;;5041198;28;20051;-93
2021/09/14 04:55:16;;;;;;;2.08;1.00;;;13.20;73.80;;;;;;5042129;28;20013;-92
2021/09/14 04:57:42;;;;;;;3.03;1.65;;;13.20;73.20;;;;;;5038023;28;20029;-93
2021/09/14 05:00:11;;;;;;;3.50;1.23;;;13.30;73.40;;;;;;5041938;28;20036;-90
2021/09/14 05:02:37;;;;;;;1.70;1.30;;;13.30;73.40;;;;;;5052404;28;20061;-89
2021/09/14 05:05:03;;;;;;;3.17;1.60;;;13.40;73.00;;;;;;5059638;28;20032;-90
2021/09/14 05:07:29;;;;;;;4.30;1.63;;;13.50;73.40;;;;;;5060635;28;20439;-90
2021/09/14 05:09:55;;;;;;;5.75;1.90;;;13.60;73.10;;;;;;5042965;28;20028;-89
2021/09/14 05:12:21;;;;;;;4.70;1.52;;;13.70;72.90;;;;;;5045539;28;20024;-91
2021/09/14 05:14:47;;;;;;;2.33;1.55;;;13.80;72.40;;;;;;5063358;28;20025;-90
2021/09/14 05:17:12;;;;;;;4.75;1.40;;;13.90;72.20;;;;;;5038379;28;20052;-90
2021/09/14 05:19:38;;;;;;;4.80;1.50;;;13.80;72.30;;;;;;5065043;28;20029;-92
2021/09/14 05:22:05;;;;;;;4.82;1.70;;;13.80;72.40;;;;;;5059836;28;20052;-91
2021/09/14 05:24:32;;;;;;;6.93;1.80;;;13.80;72.70;;;;;;5049283;28;20418;-92
2021/09/14 05:26:58;;;;;;;4.38;2.05;;;13.90;72.30;;;;;;5057058;28;20021;-90
2021/09/14 05:29:25;;;;;;;5.15;1.67;;;14.00;71.60;;;;;;5062027;28;20033;-90
2021/09/14 05:31:52;;;;;;;6.22;2.00;;;14.20;72.30;;;;;;5055657;28;20021;-90
2021/09/14 05:34:21;;;;;;;;;;;14.40;71.60;;;;;;5045675;28;20085;-89
2021/09/14 05:36:47;;;;;;;4.10;1.40;;;14.50;71.40;;;;;;5046938;28;19904;-88
2021/09/14 05:39:15;;;;;;;3.00;1.45;;;14.60;71.60;;;;;;5052722;28;20387;-90
2021/09/14 05:41:41;;;;;;;6.22;1.50;;;14.60;71.00;;;;;;5055138;28;20021;-89
2021/09/14 05:44:07;;;;;;;5.07;1.58;;;14.70;70.90;;;;;;5056808;28;20466;-89
2021/09/14 05:46:33;;;;;;;6.68;2.45;;;14.80;71.10;;;;;;5061889;28;20032;-90
2021/09/14 05:48:59;;;;;;;4.28;1.67;;;14.70;72.00;;;;;;5051792;28;20487;-91
2021/09/14 05:51:24;;;;;;;3.20;1.40;;;14.90;71.60;;;;;;5064975;28;20025;-91
2021/09/14 05:53:50;;;;;;;3.95;1.58;;;15.00;71.00;;;;;;5059779;28;20483;-92
2021/09/14 05:56:16;;;;;;;7.32;1.65;;;15.00;69.90;;;;;;5053782;28;20021;-87
2021/09/14 05:58:42;;;;;;;4.32;1.58;;;14.90;69.80;;;;;;5055284;28;20032;-90
2021/09/14 06:01:09;;;;;;;4.03;1.80;;;14.90;69.90;;;;;;5058754;28;20139;-90
2021/09/14 06:03:34;;;;;;;6.00;1.90;;;15.00;69.70;;;;;;5053958;28;20032;-91
2021/09/14 06:06:18;;;;;;;5.18;1.50;;;15.00;69.90;;;;;;5069768;28;20316;-92
2021/09/14 06:08:44;;;;;;;8.05;2.00;;;15.10;69.90;;;;;;5045448;28;20509;-87
2021/09/14 06:11:10;;;;;;;3.85;1.67;;;15.10;69.90;;;;;;5066812;28;20049;-90
2021/09/14 06:13:35;;;;;;;3.72;1.38;;;14.90;71.10;;;;;;5050919;28;20029;-89
2021/09/14 06:16:04;;;;;;;3.97;1.50;;;14.80;71.30;;;;;;5055089;28;20033;-89
2021/09/14 06:18:30;;;;;;;8.00;2.08;;;14.70;72.00;;;;;;5065797;28;20056;-91
2021/09/14 06:20:56;;;;;;;4.00;1.50;;;14.70;72.40;;;;;;5078467;28;20020;-90
2021/09/14 06:23:22;;;;;;;12.50;2.28;;;14.80;72.20;;;;;;5063021;28;20026;-89
2021/09/14 06:25:48;;;;;;;4.75;1.40;;;14.80;72.40;;;;;;5052973;28;20021;-90
2021/09/14 06:28:14;;;;;;;4.35;1.60;;;15.00;72.10;;;;;;5058296;28;20036;-90
2021/09/14 06:30:39;;;;;;;3.13;1.67;;;15.20;71.30;;;;;;5069296;28;20426;-90
2021/09/14 06:33:05;;;;;;;3.40;1.48;;;15.20;71.50;;;;;;5059237;28;20099;-89
2021/09/14 06:35:32;;;;;;;7.30;1.73;;;15.20;70.90;;;;;;5054353;28;20017;-91
2021/09/14 06:37:58;;;;;;;4.38;1.85;;;15.10;70.40;;;;;;5056316;28;20115;-91
2021/09/14 06:40:24;;;;;;;5.97;1.77;;;15.10;70.90;;;;;;5049051;28;20143;-91
2021/09/14 06:42:49;;;;;;;4.60;2.00;;;15.30;70.80;;;;;;5047211;28;20125;-92
2021/09/14 06:45:15;;;;;;;2.58;1.50;;;15.40;68.80;;;;;;5056644;28;20029;-90
2021/09/14 06:47:41;;;;;;;4.63;1.40;;;15.50;67.50;;;;;;5022570;28;20029;-92
2021/09/14 06:50:08;;;;;;;3.58;1.63;;;15.40;67.90;;;;;;5071398;28;20079;-90
2021/09/14 06:52:33;;;;;;;5.10;1.48;;;15.20;68.30;;;;;;5040213;28;20021;-87
2021/09/14 06:54:59;;;;;;;5.47;1.60;;;15.10;68.10;;;;;;5070127;28;20561;-90
2021/09/14 06:57:25;;;;;;;5.32;2.05;;;15.00;68.10;;;;;;5060296;28;20024;-92
2021/09/14 06:59:51;;;;;;;6.30;2.03;;;15.20;67.70;;;;;;5067184;28;20041;-90
2021/09/14 07:02:17;;;;;;;3.72;1.52;;;15.50;66.60;;;;;;5082198;28;20024;-95
2021/09/14 07:04:43;;;;;;;2.20;1.10;;;15.50;66.20;;;;;;5057461;28;20032;-90
2021/09/14 07:07:09;;;;;;;2.33;1.50;;;15.40;65.00;;;;;;5080341;28;20021;-91
2021/09/14 07:09:36;;;;;;;6.75;1.75;;;15.60;64.30;;;;;;5070965;28;20029;-91
2021/09/14 07:12:02;;;;;;;6.60;1.48;;;15.90;64.00;;;;;;5056572;28;20051;-92
2021/09/14 07:14:28;;;;;;;8.98;2.00;;;16.20;62.20;;;;;;5059221;28;20026;-93
2021/09/14 07:16:55;;;;;;;3.95;1.55;;;16.10;60.90;;;;;;5047145;28;20041;-91
2021/09/14 07:19:20;;;;;;;5.32;1.40;;;16.10;61.10;;;;;;5057945;28;20148;-91
2021/09/14 07:21:46;;;;;;;5.80;1.58;;;16.00;60.90;;;;;;5054541;28;20075;-90
2021/09/14 07:24:12;;;;;;;3.90;1.42;;;16.00;61.30;;;;;;5053917;28;20029;-88
2021/09/14 07:26:47;;;;;;;7.15;1.05;;;16.40;60.50;;;;;;5055207;28;20029;-83
2021/09/14 07:29:12;;;;;;;2.63;1.50;;;17.10;59.30;;;;;;5054643;28;20025;-85
2021/09/14 07:31:41;;;;;;;4.90;2.03;;;17.70;57.40;;;;;;5059273;28;20020;-89
2021/09/14 07:34:07;;;;;;;3.10;1.63;;;18.10;55.80;;;;;;5059159;28;20025;-83
2021/09/14 07:36:33;;;;;;;6.60;1.73;;;18.10;54.10;;;;;;5052578;28;20024;-82
2021/09/14 07:38:59;;;;;;;2.63;1.50;;;17.60;53.70;;;;;;5055055;28;20471;-90
2021/09/14 07:41:25;;;;;;;5.90;1.50;;;17.30;55.00;;;;;;5061546;28;20029;-87
2021/09/14 07:43:51;;;;;;;3.40;1.20;;;17.60;54.40;;;;;;5045007;28;20375;-84
2021/09/14 07:46:17;;;;;;;5.45;1.48;;;18.80;52.60;;;;;;5067074;28;20052;-88
2021/09/14 07:48:43;;;;;;;3.47;1.48;;;20.20;49.80;;;;;;5053093;28;20090;-84
2021/09/14 07:51:08;;;;;;;4.75;1.30;;;20.70;47.30;;;;;;5056781;28;20454;-87
2021/09/14 07:53:34;;;;;;;5.05;2.42;;;20.70;45.10;;;;;;5071248;28;20394;-88
2021/09/14 07:56:00;;;;;;;3.00;1.75;;;20.30;46.10;;;;;;5070974;28;20012;-87
2021/09/14 07:58:26;;;;;;;2.42;1.48;;;19.70;47.10;;;;;;5056187;28;20041;-87
2021/09/14 08:00:52;;;;;;;3.85;1.30;;;19.40;48.20;;;;;;5054952;28;20073;-88
2021/09/14 08:03:18;;;;;;;3.97;1.27;;;19.20;47.10;;;;;;5058163;28;20017;-85
2021/09/14 08:05:44;;;;;;;6.35;1.40;;;18.80;48.00;;;;;;5052977;28;20021;-84
2021/09/14 08:08:09;;;;;;;3.83;1.73;;;18.60;48.90;;;;;;5075189;28;20020;-86
2021/09/14 08:10:36;;;;;;;14.40;3.03;;;18.30;49.40;;;;;;5056117;28;20009;-84
2021/09/14 08:13:02;;;;;;;5.25;1.77;;;18.10;50.30;;;;;;5055195;28;20091;-88
2021/09/14 08:15:28;;;;;;;4.28;1.30;;;18.00;50.50;;;;;;5055948;28;20029;-87
2021/09/14 08:17:54;;;;;;;7.93;2.45;;;17.80;50.60;;;;;;5054374;28;20049;-85
2021/09/14 08:20:20;;;;;;;2.72;1.60;;;17.60;51.10;;;;;;5055665;28;20098;-80
2021/09/14 08:22:46;;;;;;;5.45;1.42;;;17.40;50.60;;;;;;5054944;28;20075;-80
2021/09/14 08:25:13;;;;;;;3.05;1.30;;;17.30;49.80;;;;;;5062891;28;20033;-83
2021/09/14 08:27:41;;;;;;;5.05;1.40;;;17.10;48.80;;;;;;5048515;28;20057;-83
2021/09/14 08:30:07;;;;;;;3.63;1.08;;;16.80;47.80;;;;;;5055639;28;20024;-87
2021/09/14 08:32:33;;;;;;;7.53;1.40;;;16.60;48.10;;;;;;5056345;28;20032;-88
2021/09/14 08:34:59;;;;;;;3.33;2.38;;;16.60;49.00;;;;;;5053731;28;20730;-88
2021/09/14 08:37:25;;;;;;;5.97;1.35;;;16.70;48.90;;;;;;5054619;28;20025;-85
2021/09/14 08:39:51;;;;;;;4.18;1.27;;;16.80;47.50;;;;;;5054744;28;20035;-86
2021/09/14 08:42:18;;;;;;;4.82;1.35;;;16.60;46.50;;;;;;5055196;28;20092;-86
2021/09/14 08:44:46;;;;;;;3.00;1.40;;;16.50;48.30;;;;;;5056762;28;20029;-88
2021/09/14 08:47:11;;;;;;;6.97;1.40;;;16.50;48.00;;;;;;5056343;28;20055;-87
2021/09/14 08:49:37;;;;;;;3.60;1.80;;;16.30;48.10;;;;;;5052945;28;20033;-86
2021/09/14 08:52:04;;;;;;;4.60;1.40;;;16.20;49.00;;;;;;5061757;28;20021;-87
2021/09/14 08:54:30;;;;;;;1.70;0.82;;;16.10;49.30;;;;;;5056066;28;20119;-85
2021/09/14 08:56:56;;;;;;;5.32;1.50;;;15.80;49.20;;;;;;5055004;28;20044;-82
2021/09/14 08:59:31;;;;;;;4.50;1.48;;;15.60;49.40;;;;;;5053920;28;20044;-85
2021/09/14 09:02:03;;;;;;;4.55;1.67;;;15.60;50.00;;;;;;5053956;28;20382;-83
2021/09/14 09:04:29;;;;;;;3.65;1.73;;;15.60;50.50;;;;;;5054943;28;20457;-85
2021/09/14 09:06:55;;;;;;;2.90;1.52;;;15.70;50.90;;;;;;5055302;28;20067;-86
2021/09/14 09:09:23;;;;;;;4.43;1.65;;;15.70;51.10;;;;;;5056591;28;20040;-83
2021/09/14 09:12:01;;;;;;;6.38;1.40;;;15.70;51.00;;;;;;5055286;28;20075;-87
2021/09/14 09:14:36;;;;;;;6.97;1.38;;;15.50;50.10;;;;;;5051862;28;20017;-87
2021/09/14 09:17:03;;;;;;;6.20;1.45;;;15.40;50.80;;;;;;5055273;28;20857;-89
2021/09/14 09:19:29;;;;;;;2.08;0.85;;;15.40;50.70;;;;;;5067087;28;20044;-87
2021/09/14 09:21:57;;;;;;;3.60;1.42;;;15.50;50.30;;;;;;5068826;28;20025;-87
2021/09/14 09:24:23;;;;;;;3.75;1.27;;;15.50;50.00;;;;;;5051802;28;20036;-86
2021/09/14 09:26:49;;;;;;;4.18;1.42;;;15.60;50.00;;;;;;5070022;28;20020;-85
2021/09/14 09:29:27;;;;;;;6.10;1.70;;;15.60;50.00;;;;;;5060801;28;20053;-86
2021/09/14 09:31:53;;;;;;;4.43;1.67;;;15.60;50.00;;;;;;5045951;28;20028;-84
2021/09/14 09:34:27;;;;;;;3.20;1.10;;;15.60;50.30;;;;;;5037078;28;20052;-88
2021/09/14 09:37:04;;;;;;;3.28;0.90;;;15.40;50.20;;;;;;5054921;28;20024;-85
2021/09/14 09:39:45;;;;;;;5.32;1.35;;;15.30;50.90;;;;;;5066521;28;20052;-85
2021/09/14 09:42:12;;;;;;;3.42;1.02;;;15.30;51.20;;;;;;5044418;28;20021;-89
2021/09/14 09:44:40;;;;;;;2.58;1.65;;;15.30;51.30;;;;;;5060307;28;20048;-88
2021/09/14 09:47:06;;;;;;;6.30;0.98;;;15.30;51.90;;;;;;5060201;28;20050;-88
2021/09/14 09:49:35;;;;;;;4.82;1.50;;;15.50;52.10;;;;;;5038359;28;20021;-91
2021/09/14 09:52:01;;;;;;;1.63;0.90;;;15.50;52.20;;;;;;5038964;28;20074;-87
2021/09/14 09:54:27;;;;;;;3.65;1.98;;;15.50;52.30;;;;;;5058027;28;20028;-90
2021/09/14 09:56:53;;;;;;;5.38;1.63;;;15.50;52.80;;;;;;5062488;28;20029;-88
2021/09/14 09:59:19;;;;;;;3.45;1.55;;;15.40;53.00;;;;;;5044987;28;20094;-89
2021/09/14 10:02:14;;;;;;;6.38;1.85;;;15.30;53.70;;;;;;5057088;28;20473;-89
2021/09/14 10:04:59;;;;;;;2.95;1.27;;;15.30;54.00;;;;;;5052191;28;20021;-89
2021/09/14 10:07:28;;;;;;;1.55;0.80;;;14.90;52.10;;;;;;5046711;28;20040;-90
2021/09/14 10:09:59;;;;;;;1.70;0.80;;;14.70;52.60;;;;;;5044416;28;20511;-93
2021/09/14 10:12:33;;;;;;;9.95;1.85;;;14.60;53.40;;;;;;5047351;28;20017;-94
2021/09/14 10:15:02;;;;;;;4.53;1.63;;;14.60;54.10;;;;;;5052428;28;20453;-92
2021/09/14 10:17:31;;;;;;;4.03;1.55;;;14.90;54.10;;;;;;5057651;28;20100;-90
2021/09/14 10:20:26;;;;;;;5.30;1.60;;;15.20;53.60;;;;;;5023589;28;20052;-93
2021/09/14 10:23:05;;;;;;;5.75;1.70;;;15.40;53.60;;;;;;5016349;28;20061;-94
2021/09/14 10:25:46;;;;;;;3.22;1.70;;;15.30;53.50;;;;;;4995512;28;20049;-92
2021/09/14 10:28:16;;;;;;;2.25;1.63;;;15.50;53.60;;;;;;5028686;28;20056;-94
2021/09/14 10:31:00;;;;;;;2.28;1.02;;;15.70;53.00;;;;;;5013742;28;20065;-93
2021/09/14 10:33:31;;;;;;;4.57;1.35;;;15.70;51.30;;;;;;5018212;28;20041;-94
2021/09/14 10:36:01;;;;;;;3.13;1.42;;;15.60;51.60;;;;;;5034777;28;20100;-93
2021/09/14 10:38:28;;;;;;;3.17;0.85;;;15.70;51.30;;;;;;5020125;28;20042;-94
2021/09/14 10:40:55;;;;;;;3.53;1.58;;;15.50;50.10;;;;;;5032525;28;20030;-92
2021/09/14 10:43:34;;;;;;;4.07;1.58;;;15.20;50.50;;;;;;5030193;28;20062;-93
2021/09/14 10:46:20;;;;;;;4.38;1.52;;;15.10;51.20;;;;;;5025863;28;20026;-93
2021/09/14 10:48:52;;;;;;;4.03;2.08;;;14.90;51.90;;;;;;5031506;28;20017;-94
2021/09/14 10:51:23;;;;;;;4.88;1.45;;;14.90;52.90;;;;;;5030605;28;20073;-94
2021/09/14 10:54:00;;;;;;;5.53;2.30;;;14.80;52.10;;;;;;5013650;28;20030;-91
2021/09/14 10:56:30;;;;;;;2.78;1.17;;;14.70;52.60;;;;;;5001756;28;20026;-94
2021/09/14 10:59:05;;;;;;;3.33;1.50;;;14.80;52.30;;;;;;5083089;23;20053;-92
2021/09/14 11:01:36;;;;;;;2.83;0.90;;;14.80;53.00;;;;;;5083643;28;20017;-93
2021/09/14 11:04:36;;;;;;;3.20;1.20;;;15.00;53.20;;;;;;5048824;28;20617;-94
2021/09/14 11:07:16;;;;;;;4.15;1.30;;;14.80;50.90;;;;;;4984889;28;20049;-94
2021/09/14 11:10:11;;;;;;;5.47;1.60;;;14.70;51.80;;;;;;5035221;28;20038;-94
2021/09/14 11:12:37;;;;;;;4.70;1.40;;;14.90;52.60;;;;;;5052992;28;20108;-94
2021/09/14 11:15:04;;;;;;;3.72;1.50;;;15.10;51.90;;;;;;5051506;28;20103;-93
2021/09/14 11:17:33;;;;;;;6.30;1.43;;;15.00;51.20;;;;;;5073824;28;20029;-91
2021/09/14 11:20:26;;;;;;;3.38;1.20;;;14.80;50.70;;;;;;5050941;28;20339;-91
2021/09/14 11:22:53;;;;;;;3.45;1.20;;;14.60;51.20;;;;;;5073764;28;20033;-95
2021/09/14 11:25:37;;;;;;;5.13;0.80;;;14.40;51.50;;;;;;5065155;28;20051;-94
2021/09/14 11:28:12;;;;;;;4.47;1.40;;;14.30;51.90;;;;;;5134338;22;20355;-92
2021/09/14 11:30:41;;;;;;;5.75;1.38;;;14.00;52.90;;;;;;5056093;28;20088;-94
2021/09/14 11:33:18;;;;;;;3.85;1.23;;;14.00;53.40;;;;;;5074352;28;20032;-95
2021/09/14 11:35:46;;;;;;;4.38;2.20;;;14.10;54.10;;;;;;5056940;28;20363;-96
2021/09/14 11:38:20;;;;;;;5.05;1.40;;;14.30;54.60;;;;;;5073156;28;20044;-94
2021/09/14 11:40:52;;;;;;;3.03;1.15;;;14.40;53.90;;;;;;5069009;28;20040;-94
2021/09/14 11:43:20;;;;;;;3.83;1.40;;;14.30;53.40;;;;;;5056957;28;20049;-95
2021/09/14 11:45:49;;;;;;;3.63;1.25;;;14.30;53.80;;;;;;5071181;28;20033;-95
2021/09/14 11:48:35;;;;;;;5.47;1.80;;;14.30;54.20;;;;;;5056453;28;20029;-96
2021/09/14 11:51:06;;;;;;;2.47;1.30;;;14.30;54.60;;;;;;5071545;28;20013;-94
2021/09/14 11:53:38;;;;;;;3.80;1.70;;;14.20;54.50;;;;;;5030029;28;20450;-95
2021/09/14 11:56:16;;;;;;;6.35;1.23;;;14.20;54.10;;;;;;5028041;28;20057;-93
2021/09/14 11:58:46;;;;;;;5.47;1.35;;;14.10;53.80;;;;;;5032736;28;20056;-93
2021/09/14 12:01:15;;;;;;;1.63;1.13;;;14.00;53.80;;;;;;5006396;28;20025;-91
2021/09/14 12:03:46;;;;;;;2.55;1.00;;;14.00;53.90;;;;;;5000757;28;20034;-92
2021/09/14 12:06:42;;;;;;;7.63;2.65;;;14.00;53.50;;;;;;5054142;28;20144;-95
2021/09/14 12:09:09;;;;;;;1.75;1.08;;;14.00;53.50;;;;;;5008198;28;20027;-95
2021/09/14 12:12:06;;;;;;;9.18;1.90;;;13.90;53.20;;;;;;4996991;28;20106;-93
2021/09/14 12:14:33;;;;;;;6.20;0.90;;;13.90;53.30;;;;;;4996961;28;20046;-93
2021/09/14 12:17:03;;;;;;;2.65;1.60;;;14.00;52.50;;;;;;4998600;28;20062;-93
2021/09/14 12:19:51;;;;;;;3.65;1.33;;;13.90;52.90;;;;;;4993969;28;20043;-94
2021/09/14 12:22:16;;;;;;;5.78;1.45;;;14.00;53.10;;;;;;4993332;28;20026;-93
2021/09/14 12:25:01;;;;;;;4.22;1.30;;;14.30;53.20;;;;;;4980552;28;20065;-95
2021/09/14 12:27:31;;;;;;;4.13;1.10;;;14.30;53.30;;;;;;5002897;28;20102;-93
2021/09/14 12:29:58;;;;;;;5.20;1.40;;;14.30;53.30;;;;;;4985596;28;20035;-93
2021/09/14 12:32:29;;;;;;;2.88;1.50;;;14.40;53.40;;;;;;5017799;28;20101;-90
2021/09/14 12:34:59;;;;;;;3.67;1.52;;;14.30;53.20;;;;;;4969560;28;20023;-93
2021/09/14 12:37:34;;;;;;;5.85;1.38;;;14.30;53.50;;;;;;4998701;28;20030;-94
2021/09/14 12:40:02;;;;;;;3.97;1.48;;;14.30;53.40;;;;;;4959110;28;20057;-90
2021/09/14 12:42:29;;;;;;;2.90;1.35;;;14.20;53.70;;;;;;4983686;28;20019;-93
2021/09/14 12:44:58;;;;;;;4.30;1.60;;;14.20;53.60;;;;;;4996872;28;20031;-91
2021/09/14 12:47:29;;;;;;;2.88;1.15;;;14.10;53.90;;;;;;5057394;28;20039;-94
2021/09/14 12:50:13;;;;;;;5.88;1.40;;;14.00;53.70;;;;;;5077970;28;20016;-93
2021/09/14 12:53:06;;;;;;;4.90;1.10;;;14.00;53.40;;;;;;5047854;28;20479;-94
2021/09/14 12:55:42;;;;;;;4.00;0.93;;;14.10;53.80;;;;;;5038294;28;20009;-94
2021/09/14 12:58:11;;;;;;;6.47;1.75;;;14.10;52.10;;;;;;5058067;28;20045;-92
2021/09/14 13:00:39;;;;;;;5.90;1.80;;;14.00;52.90;;;;;;5058659;28;20031;-92
2021/09/14 13:03:05;;;;;;;;;;;14.10;52.90;;;;;;5038875;28;20021;-92
2021/09/14 13:05:56;;;;;;;3.13;1.05;;;14.20;53.10;;;;;;5038383;28;19958;-93
2021/09/14 13:08:25;;;;;;;2.95;1.10;;;14.30;51.80;;;;;;5050091;28;20048;-93
2021/09/14 13:10:59;;;;;;;3.13;1.10;;;14.30;51.80;;;;;;5053718;28;20076;-93
2021/09/14 13:16:15;;;;;;;5.22;1.52;;;14.30;50.50;;;;;;5067472;28;20064;-93
2021/09/14 13:18:47;;;;;;;6.68;1.48;;;14.30;51.10;;;;;;5072961;28;20021;-95
2021/09/14 13:21:15;;;;;;;5.57;1.20;;;14.30;51.00;;;;;;5055656;28;20032;-94
2021/09/14 13:23:49;;;;;;;;;;;14.30;51.10;;;;;;5075559;28;20036;-95
2021/09/14 13:26:23;;;;;;;4.80;1.38;;;14.20;51.40;;;;;;5000409;28;19909;-93
2021/09/14 13:28:53;;;;;;;3.97;1.30;;;14.10;52.10;;;;;;4975340;28;20156;-93
2021/09/14 13:31:48;;;;;;;4.20;1.23;;;14.20;52.30;;;;;;4977889;28;20191;-94
2021/09/14 13:34:18;;;;;;;3.08;1.40;;;14.20;51.70;;;;;;4964689;28;20030;-93
2021/09/14 13:36:45;;;;;;;5.03;1.30;;;14.20;51.80;;;;;;4992841;28;20049;-91
2021/09/14 13:39:11;;;;;;;3.83;1.08;;;14.10;52.20;;;;;;4949228;29;20051;-92
2021/09/14 13:42:11;;;;;;;4.40;1.85;;;14.00;52.30;;;;;;4959227;29;20019;-95
2021/09/14 13:47:12;;;;;;;6.30;2.33;;;13.90;52.50;;;;;;4977078;28;20019;-93
2021/09/14 13:49:39;;;;;;;5.13;1.23;;;14.00;51.40;;;;;;4941624;29;20043;-93
2021/09/14 13:52:07;;;;;;;5.63;4.35;;;14.00;50.50;;;;;;4978517;28;20041;-95
2021/09/14 13:54:33;;;;;;;4.32;1.63;;;14.10;50.90;;;;;;4942673;29;20040;-94
2021/09/14 13:56:59;;;;;;;8.20;1.73;;;14.20;51.40;;;;;;4957421;29;20042;-93